Time;durP1;ratioP1;P1;durP2;ratioP2;P2;SDS_P1;SDS_P2;PMS_P1;PMS_P2;Temp;Humidity;BMP_temperature;BMP_pressure;BME280_temperature;BME280_humidity;BME280_pressure;Samples;Min_cycle;Max_cycle;Signal;HPM_P1;HPM_P2
2021/07/08 00:01:29;;;;;;;2.4;2.2;;;;;;;;;;;;;
2021/07/08 00:03:55;;;;;;;5.1;2.3;;;;;;;;;;;;;
2021/07/08 00:06:20;;;;;;;2.9;2.3;;;;;;;;;;;;;
2021/07/08 00:08:45;;;;;;;4.4;2.3;;;;;;;;;;;;;
2021/07/08 00:11:10;;;;;;;4.2;2.4;;;;;;;;;;;;;
2021/07/08 00:13:36;;;;;;;2.7;2.4;;;;;;;;;;;;;
2021/07/08 00:16:01;;;;;;;2.8;2.1;;;;;;;;;;;;;
2021/07/08 00:18:26;;;;;;;4.5;2.4;;;;;;;;;;;;;
2021/07/08 00:20:51;;;;;;;3.8;2.3;;;;;;;;;;;;;
2021/07/08 00:23:16;;;;;;;6.1;2.5;;;;;;;;;;;;;
2021/07/08 00:25:42;;;;;;;4.4;2.2;;;;;;;;;;;;;
2021/07/08 00:28:09;;;;;;;4.3;2;;;;;;;;;;;;;
2021/07/08 00:30:32;;;;;;;3.1;2.3;;;;;;;;;;;;;
2021/07/08 00:32:58;;;;;;;3.2;2.4;;;;;;;;;;;;;
2021/07/08 00:35:23;;;;;;;3.1;2.3;;;;;;;;;;;;;
2021/07/08 00:37:48;;;;;;;2.8;2.2;;;;;;;;;;;;;
2021/07/08 00:40:15;;;;;;;3.9;2.3;;;;;;;;;;;;;
2021/07/08 00:42:41;;;;;;;3.1;2.1;;;;;;;;;;;;;
2021/07/08 00:45:07;;;;;;;3.3;1.9;;;;;;;;;;;;;
2021/07/08 00:47:32;;;;;;;4.2;2.4;;;;;;;;;;;;;
2021/07/08 00:49:57;;;;;;;3.6;2.3;;;;;;;;;;;;;
2021/07/08 00:52:22;;;;;;;2.9;2.3;;;;;;;;;;;;;
2021/07/08 00:54:48;;;;;;;2.8;2.5;;;;;;;;;;;;;
2021/07/08 00:57:13;;;;;;;3.2;2.6;;;;;;;;;;;;;
2021/07/08 00:59:39;;;;;;;2.9;2.3;;;;;;;;;;;;;
2021/07/08 01:02:04;;;;;;;3.5;2.3;;;;;;;;;;;;;
2021/07/08 01:04:31;;;;;;;4.6;2.5;;;;;;;;;;;;;
2021/07/08 01:06:56;;;;;;;2.6;2.4;;;;;;;;;;;;;
2021/07/08 01:09:21;;;;;;;2.9;2.3;;;;;;;;;;;;;
2021/07/08 01:11:46;;;;;;;3.4;2.3;;;;;;;;;;;;;
2021/07/08 01:14:13;;;;;;;3.5;2.2;;;;;;;;;;;;;
2021/07/08 01:16:39;;;;;;;4.2;2.5;;;;;;;;;;;;;
2021/07/08 01:19:04;;;;;;;3.7;2.3;;;;;;;;;;;;;
2021/07/08 01:21:29;;;;;;;3.7;2.5;;;;;;;;;;;;;
2021/07/08 01:23:54;;;;;;;3.6;2.6;;;;;;;;;;;;;
2021/07/08 01:26:21;;;;;;;4;2.5;;;;;;;;;;;;;
2021/07/08 01:28:46;;;;;;;3.6;2.5;;;;;;;;;;;;;
2021/07/08 01:31:13;;;;;;;3.1;2.5;;;;;;;;;;;;;
2021/07/08 01:33:38;;;;;;;4.2;2.3;;;;;;;;;;;;;
2021/07/08 01:36:03;;;;;;;7.4;2.6;;;;;;;;;;;;;
2021/07/08 01:38:28;;;;;;;2.6;2.4;;;;;;;;;;;;;
2021/07/08 01:40:54;;;;;;;3.6;2.5;;;;;;;;;;;;;
2021/07/08 01:43:19;;;;;;;3.2;2.5;;;;;;;;;;;;;
2021/07/08 01:45:45;;;;;;;2.9;2.6;;;;;;;;;;;;;
2021/07/08 01:48:10;;;;;;;4.1;2.6;;;;;;;;;;;;;
2021/07/08 01:50:36;;;;;;;3.2;2.8;;;;;;;;;;;;;
2021/07/08 01:53:02;;;;;;;3.3;2.7;;;;;;;;;;;;;
2021/07/08 01:55:27;;;;;;;3.1;2.5;;;;;;;;;;;;;
2021/07/08 01:57:53;;;;;;;4.5;2.6;;;;;;;;;;;;;
2021/07/08 02:00:18;;;;;;;5.3;3.1;;;;;;;;;;;;;
2021/07/08 02:02:43;;;;;;;6.3;3.1;;;;;;;;;;;;;
2021/07/08 02:05:08;;;;;;;5.2;3;;;;;;;;;;;;;
2021/07/08 02:07:33;;;;;;;4.7;3;;;;;;;;;;;;;
2021/07/08 02:09:58;;;;;;;5;2.8;;;;;;;;;;;;;
2021/07/08 02:12:23;;;;;;;4.9;2.8;;;;;;;;;;;;;
2021/07/08 02:14:48;;;;;;;3.3;3;;;;;;;;;;;;;
2021/07/08 02:17:13;;;;;;;3.5;2.7;;;;;;;;;;;;;
2021/07/08 02:19:59;;;;;;;4;2.8;;;;;;;;;;;;;
2021/07/08 02:22:24;;;;;;;4.5;2.9;;;;;;;;;;;;;
2021/07/08 02:24:49;;;;;;;5.4;3;;;;;;;;;;;;;
2021/07/08 02:27:14;;;;;;;4.3;2.8;;;;;;;;;;;;;
2021/07/08 02:29:39;;;;;;;4.8;2.4;;;;;;;;;;;;;
2021/07/08 02:32:04;;;;;;;3.6;2.6;;;;;;;;;;;;;
2021/07/08 02:34:29;;;;;;;3.5;2.5;;;;;;;;;;;;;
2021/07/08 02:36:55;;;;;;;5.4;2.6;;;;;;;;;;;;;
2021/07/08 02:39:20;;;;;;;5.8;2.4;;;;;;;;;;;;;
2021/07/08 02:41:45;;;;;;;4.5;3;;;;;;;;;;;;;
2021/07/08 02:44:10;;;;;;;4.6;3.1;;;;;;;;;;;;;
2021/07/08 02:46:35;;;;;;;5.6;3.1;;;;;;;;;;;;;
2021/07/08 02:49:02;;;;;;;3.8;3.2;;;;;;;;;;;;;
2021/07/08 02:51:27;;;;;;;4.2;3.3;;;;;;;;;;;;;
2021/07/08 02:53:53;;;;;;;3;2.7;;;;;;;;;;;;;
2021/07/08 02:56:18;;;;;;;4.2;2.7;;;;;;;;;;;;;
2021/07/08 02:58:44;;;;;;;3.5;2.6;;;;;;;;;;;;;
2021/07/08 03:01:09;;;;;;;4.2;2.6;;;;;;;;;;;;;
2021/07/08 03:03:35;;;;;;;3.6;2.5;;;;;;;;;;;;;
2021/07/08 03:06:01;;;;;;;4.2;2.7;;;;;;;;;;;;;
2021/07/08 03:08:26;;;;;;;4.3;2.7;;;;;;;;;;;;;
2021/07/08 03:10:51;;;;;;;2.8;2.5;;;;;;;;;;;;;
2021/07/08 03:13:18;;;;;;;4.4;2.6;;;;;;;;;;;;;
2021/07/08 03:15:43;;;;;;;3.2;2.6;;;;;;;;;;;;;
2021/07/08 03:18:10;;;;;;;4;2.6;;;;;;;;;;;;;
2021/07/08 03:20:35;;;;;;;4;2.7;;;;;;;;;;;;;
2021/07/08 03:23:01;;;;;;;3.9;2.6;;;;;;;;;;;;;
2021/07/08 03:25:26;;;;;;;3.7;2.6;;;;;;;;;;;;;
2021/07/08 03:27:52;;;;;;;4.9;2.6;;;;;;;;;;;;;
2021/07/08 03:30:18;;;;;;;4;2.8;;;;;;;;;;;;;
2021/07/08 03:32:43;;;;;;;3.8;2.4;;;;;;;;;;;;;
2021/07/08 03:35:08;;;;;;;4;2.3;;;;;;;;;;;;;
2021/07/08 03:37:33;;;;;;;4.5;2.4;;;;;;;;;;;;;
2021/07/08 03:39:59;;;;;;;3.2;2.2;;;;;;;;;;;;;
2021/07/08 03:42:25;;;;;;;6.3;2.8;;;;;;;;;;;;;
2021/07/08 03:44:51;;;;;;;5.4;2.6;;;;;;;;;;;;;
2021/07/08 03:47:15;;;;;;;3.2;2.3;;;;;;;;;;;;;
2021/07/08 03:49:41;;;;;;;3.7;2.4;;;;;;;;;;;;;
2021/07/08 03:52:07;;;;;;;5.3;2.2;;;;;;;;;;;;;
2021/07/08 03:54:32;;;;;;;3.2;2.7;;;;;;;;;;;;;
2021/07/08 03:56:58;;;;;;;2.8;2.5;;;;;;;;;;;;;
2021/07/08 03:59:23;;;;;;;5;2.4;;;;;;;;;;;;;
2021/07/08 04:02:33;;;;;;;3.9;2.8;;;;;;;16.94;94.22461;940.4846;;;;
2021/07/08 04:04:56;;;;;;;3.9;2.6;;;;;;;16.99;94.46582;940.4913;;;;
2021/07/08 04:07:23;;;;;;;4.9;2.5;;;;;;;17.05;94.28027;940.4025;;;;
2021/07/08 04:09:48;;;;;;;4.8;2.3;;;;;;;17.02;93.71777;940.2263;;;;
2021/07/08 04:12:17;;;;;;;3.7;2.5;;;;;;;17.04;93.73535;940.1902;;;;
2021/07/08 04:14:42;;;;;;;8.6;2.7;;;;;;;17.08;93.83594;940.1897;;;;
2021/07/08 04:17:11;;;;;;;6.4;2.3;;;;;;;17.04;93.875;940.2424;;;;
2021/07/08 04:19:41;;;;;;;4.5;2.6;;;;;;;17.09;93.71289;940.179;;;;
2021/07/08 04:22:12;;;;;;;4;2.2;;;;;;;17.12;93.20801;940.2615;;;;
2021/07/08 04:24:41;;;;;;;4.5;2.6;;;;;;;17.13;92.6748;940.1713;;;;
2021/07/08 04:27:07;;;;;;;4.1;2;;;;;;;17.18;93.15039;940.1722;;;;
2021/07/08 04:29:37;;;;;;;3;2.3;;;;;;;17.29;92.80176;940.1599;;;;
2021/07/08 04:32:07;;;;;;;4.9;2.7;;;;;;;17.3;92.72266;940.092;;;;
2021/07/08 04:34:36;;;;;;;3.1;2.4;;;;;;;17.35;92.16602;940.1261;;;;
2021/07/08 04:37:03;;;;;;;3;2.5;;;;;;;17.34;92.03418;940.1174;;;;
2021/07/08 04:39:26;;;;;;;4.1;2.8;;;;;;;17.39;92.35938;940.2076;;;;
2021/07/08 04:41:51;;;;;;;4;2.7;;;;;;;17.42;91.85645;940.2042;;;;
2021/07/08 04:44:31;;;;;;;3.3;2.5;;;;;;;17.5;91.59473;940.2402;;;;
2021/07/08 04:46:58;;;;;;;3.1;2.4;;;;;;;17.5;91.26953;940.2972;;;;
2021/07/08 04:49:23;;;;;;;5.7;2.9;;;;;;;17.59;91.625;940.3539;;;;
2021/07/08 04:51:49;;;;;;;4.7;2.4;;;;;;;17.63;91.93457;940.3231;;;;
2021/07/08 04:54:14;;;;;;;4.1;2.3;;;;;;;17.57;91.95801;940.2141;;;;
2021/07/08 04:56:40;;;;;;;8.1;2.9;;;;;;;17.54;91.70703;940.1993;;;;
2021/07/08 04:59:05;;;;;;;5.2;2.8;;;;;;;17.56;91.77051;940.2344;;;;
2021/07/08 05:01:31;;;;;;;3.5;2.8;;;;;;;17.68;91.60742;940.1939;;;;
2021/07/08 05:03:59;;;;;;;3.9;2.7;;;;;;;17.69;91.78516;940.0995;;;;
2021/07/08 05:06:22;;;;;;;7.5;3;;;;;;;17.7;91.76367;940.1597;;;;
2021/07/08 05:08:48;;;;;;;6.8;3.1;;;;;;;17.61;91.26953;940.1854;;;;
2021/07/08 05:11:13;;;;;;;4.5;2.6;;;;;;;17.53;91.3457;940.2615;;;;
2021/07/08 05:13:39;;;;;;;3.8;2.2;;;;;;;17.46;91.84082;940.2938;;;;
2021/07/08 05:16:07;;;;;;;5.4;2.4;;;;;;;17.53;91.80957;940.2662;;;;
2021/07/08 05:18:37;;;;;;;4.2;2.7;;;;;;;17.48;91.89063;940.2662;;;;
2021/07/08 05:21:03;;;;;;;4.8;2.6;;;;;;;17.36;92.6084;940.2813;;;;
2021/07/08 05:23:31;;;;;;;7.1;2.4;;;;;;;17.48;91.72852;940.2919;;;;
2021/07/08 05:25:57;;;;;;;7.2;2.5;;;;;;;17.58;91.73926;940.3348;;;;
2021/07/08 05:28:22;;;;;;;7.3;2.7;;;;;;;17.7;90.61523;940.3522;;;;
2021/07/08 05:30:50;;;;;;;5.8;2.6;;;;;;;17.74;91.00488;940.3814;;;;
2021/07/08 05:33:15;;;;;;;5.4;2.3;;;;;;;17.85;89.93652;940.2609;;;;
2021/07/08 05:35:41;;;;;;;2.4;1.9;;;;;;;17.91;89.00879;940.3309;;;;
2021/07/08 05:38:07;;;;;;;2.8;1.9;;;;;;;18.07;88.20508;940.2996;;;;
2021/07/08 05:40:32;;;;;;;3.9;2.1;;;;;;;18.19;89.16992;940.2783;;;;
2021/07/08 05:42:57;;;;;;;3.6;2.4;;;;;;;18.3;88.68066;940.1672;;;;
2021/07/08 05:45:24;;;;;;;3.5;2.1;;;;;;;18.44;87.20801;940.3085;;;;
2021/07/08 05:47:50;;;;;;;2.9;2.2;;;;;;;18.46;88.90918;940.3494;;;;
2021/07/08 05:50:18;;;;;;;3.7;2.5;;;;;;;18.48;88.26367;940.4183;;;;
2021/07/08 05:52:43;;;;;;;2.9;2.4;;;;;;;18.48;88.25195;940.5327;;;;
2021/07/08 05:55:10;;;;;;;4.1;2.7;;;;;;;18.55;87.3125;940.5823;;;;
2021/07/08 05:57:46;;;;;;;3.5;2.5;;;;;;;18.63;86.5498;940.463;;;;
2021/07/08 06:00:05;;;;;;;3;2.1;;;;;;;18.68;86.23242;940.4226;;;;
2021/07/08 06:02:30;;;;;;;4.1;2.4;;;;;;;18.73;86.65039;940.462;;;;
2021/07/08 06:04:55;;;;;;;3.6;2.1;;;;;;;18.78;86.54492;940.448;;;;
2021/07/08 06:07:23;;;;;;;4.1;2.7;;;;;;;18.69;88.23535;940.5272;;;;
2021/07/08 06:09:48;;;;;;;4.4;2.4;;;;;;;18.79;86.97559;940.5762;;;;
2021/07/08 06:12:16;;;;;;;2;1.8;;;;;;;18.84;86.05469;940.6401;;;;
2021/07/08 06:14:41;;;;;;;3.2;2.3;;;;;;;18.8;87.22168;940.6794;;;;
2021/07/08 06:17:07;;;;;;;4.2;2.1;;;;;;;18.81;86.10742;940.6742;;;;
2021/07/08 06:19:33;;;;;;;2.2;2;;;;;;;18.8;85.40625;940.7189;;;;
2021/07/08 06:21:59;;;;;;;1.9;1.8;;;;;;;18.88;84.88672;940.7775;;;;
2021/07/08 06:24:24;;;;;;;2.3;2;;;;;;;18.9;86.27637;940.7286;;;;
2021/07/08 06:26:50;;;;;;;2.1;1.8;;;;;;;18.77;87.22754;940.6758;;;;
2021/07/08 06:29:15;;;;;;;1.9;1.8;;;;;;;18.8;87.29102;940.6526;;;;
2021/07/08 06:31:40;;;;;;;5.5;2.1;;;;;;;18.92;85.12793;940.6822;;;;
2021/07/08 06:34:06;;;;;;;3.4;1.9;;;;;;;19;84.07227;940.6096;;;;
2021/07/08 06:36:30;;;;;;;2.4;2.1;;;;;;;;;;;;;
2021/07/08 06:38:56;;;;;;;2.8;2;;;;;;;;;;;;;
2021/07/08 06:41:21;;;;;;;2.8;2.1;;;;;;;;;;;;;
2021/07/08 06:43:46;;;;;;;4.5;2.1;;;;;;;;;;;;;
2021/07/08 06:46:16;;;;;;;3.7;2.2;;;;;;;;;;;;;
2021/07/08 06:48:37;;;;;;;4.1;1.8;;;;;;;;;;;;;
2021/07/08 06:51:04;;;;;;;3.2;2.1;;;;;;;;;;;;;
2021/07/08 06:53:29;;;;;;;3.1;2;;;;;;;;;;;;;
2021/07/08 06:55:56;;;;;;;3;2.1;;;;;;;;;;;;;
2021/07/08 06:58:21;;;;;;;3.2;1.8;;;;;;;;;;;;;
2021/07/08 07:00:46;;;;;;;4.6;2;;;;;;;;;;;;;
2021/07/08 07:03:11;;;;;;;3;1.9;;;;;;;;;;;;;
2021/07/08 07:05:38;;;;;;;3.6;1.9;;;;;;;;;;;;;
2021/07/08 07:08:03;;;;;;;2.8;2.1;;;;;;;;;;;;;
2021/07/08 07:10:29;;;;;;;3.2;1.8;;;;;;;;;;;;;
2021/07/08 07:12:54;;;;;;;2.4;1.7;;;;;;;;;;;;;
2021/07/08 07:15:39;;;;;;;3.8;2;;;;;;;;;;;;;
2021/07/08 07:18:04;;;;;;;2.9;1.8;;;;;;;;;;;;;
2021/07/08 07:20:29;;;;;;;2.9;1.9;;;;;;;;;;;;;
2021/07/08 07:22:55;;;;;;;4.7;2;;;;;;;;;;;;;
2021/07/08 07:25:20;;;;;;;3.1;2;;;;;;;;;;;;;
2021/07/08 07:27:49;;;;;;;3.7;2.1;;;;;;;;;;;;;
2021/07/08 07:30:12;;;;;;;3.4;2.6;;;;;;;;;;;;;
2021/07/08 07:32:39;;;;;;;7;2.6;;;;;;;;;;;;;
2021/07/08 07:35:04;;;;;;;4.9;2.6;;;;;;;;;;;;;
2021/07/08 07:37:31;;;;;;;4.6;2.6;;;;;;;;;;;;;
2021/07/08 07:39:56;;;;;;;7.7;2.6;;;;;;;;;;;;;
2021/07/08 07:42:22;;;;;;;2.9;2.1;;;;;;;;;;;;;
2021/07/08 07:44:47;;;;;;;3;2.2;;;;;;;;;;;;;
2021/07/08 07:47:12;;;;;;;4.8;2.4;;;;;;;;;;;;;
2021/07/08 07:49:37;;;;;;;2.7;2.1;;;;;;;;;;;;;
2021/07/08 07:52:02;;;;;;;6.1;2.4;;;;;;;;;;;;;
2021/07/08 07:54:28;;;;;;;5.5;2.4;;;;;;;;;;;;;
2021/07/08 07:56:52;;;;;;;3;2.2;;;;;;;;;;;;;
2021/07/08 07:59:17;;;;;;;5.4;2.3;;;;;;;;;;;;;
2021/07/08 08:01:43;;;;;;;5;2.1;;;;;;;;;;;;;
2021/07/08 08:04:09;;;;;;;2.6;1.9;;;;;;;;;;;;;
2021/07/08 08:08:59;;;;;;;6.4;2.2;;;;;;;;;;;;;
2021/07/08 08:11:24;;;;;;;4.1;1.9;;;;;;;;;;;;;
2021/07/08 08:13:49;;;;;;;6;2.1;;;;;;;;;;;;;
2021/07/08 08:16:14;;;;;;;5.2;2.1;;;;;;;;;;;;;
2021/07/08 08:18:39;;;;;;;5.1;2.3;;;;;;;;;;;;;
2021/07/08 08:21:05;;;;;;;5.8;1.9;;;;;;;;;;;;;
2021/07/08 08:23:30;;;;;;;4.3;2;;;;;;;;;;;;;
2021/07/08 08:25:55;;;;;;;6;2.2;;;;;;;;;;;;;
2021/07/08 08:28:21;;;;;;;5.7;2.3;;;;;;;;;;;;;
2021/07/08 08:30:47;;;;;;;5.2;2.5;;;;;;;;;;;;;
2021/07/08 08:33:12;;;;;;;5.6;2.5;;;;;;;;;;;;;
2021/07/08 08:35:37;;;;;;;3.8;2.4;;;;;;;;;;;;;
2021/07/08 08:38:03;;;;;;;4.9;1.9;;;;;;;;;;;;;
2021/07/08 08:40:28;;;;;;;3.4;2.2;;;;;;;;;;;;;
2021/07/08 08:42:55;;;;;;;2.8;2;;;;;;;;;;;;;
2021/07/08 08:45:21;;;;;;;4.9;2.4;;;;;;;;;;;;;
2021/07/08 08:47:46;;;;;;;2.5;2.1;;;;;;;;;;;;;
2021/07/08 08:50:11;;;;;;;6.7;2.6;;;;;;;;;;;;;
2021/07/08 08:52:37;;;;;;;2.6;2.2;;;;;;;;;;;;;
2021/07/08 08:55:02;;;;;;;4.4;2.4;;;;;;;;;;;;;
2021/07/08 08:57:28;;;;;;;3.1;2.3;;;;;;;;;;;;;
2021/07/08 08:59:53;;;;;;;3.8;2.5;;;;;;;;;;;;;
2021/07/08 09:02:18;;;;;;;3.4;2.3;;;;;;;;;;;;;
2021/07/08 09:04:47;;;;;;;3.2;2.8;;;;;;;;;;;;;
2021/07/08 09:07:12;;;;;;;3.5;2.9;;;;;;;;;;;;;
2021/07/08 09:09:41;;;;;;;4.2;2.8;;;;;;;;;;;;;
2021/07/08 09:12:06;;;;;;;3.5;2.6;;;;;;;;;;;;;
2021/07/08 09:14:31;;;;;;;3.1;2.8;;;;;;;;;;;;;
2021/07/08 09:16:56;;;;;;;3.1;2.6;;;;;;;;;;;;;
2021/07/08 09:19:23;;;;;;;3.2;2.7;;;;;;;;;;;;;
2021/07/08 09:21:47;;;;;;;3.7;2.8;;;;;;;;;;;;;
2021/07/08 09:24:13;;;;;;;5.2;2.6;;;;;;;;;;;;;
2021/07/08 09:26:38;;;;;;;2.4;2.2;;;;;;;;;;;;;
2021/07/08 09:29:04;;;;;;;2.8;2.5;;;;;;;;;;;;;
2021/07/08 09:31:29;;;;;;;3.3;2.6;;;;;;;;;;;;;
2021/07/08 09:33:55;;;;;;;3.1;2.4;;;;;;;;;;;;;
2021/07/08 09:36:20;;;;;;;3.4;2.4;;;;;;;;;;;;;
2021/07/08 09:38:46;;;;;;;4.7;2.7;;;;;;;;;;;;;
2021/07/08 09:41:11;;;;;;;4.2;2.5;;;;;;;;;;;;;
2021/07/08 09:43:39;;;;;;;3.4;3;;;;;;;;;;;;;
2021/07/08 09:46:04;;;;;;;8.1;3.1;;;;;;;;;;;;;
2021/07/08 09:48:29;;;;;;;7.4;3;;;;;;;;;;;;;
2021/07/08 09:50:56;;;;;;;8.6;2.8;;;;;;;;;;;;;
2021/07/08 09:53:22;;;;;;;4.1;2.6;;;;;;;;;;;;;
2021/07/08 09:55:55;;;;;;;4.7;2.8;;;;;;;;;;;;;
2021/07/08 09:58:11;;;;;;;4.8;2.2;;;;;;;;;;;;;
2021/07/08 10:00:36;;;;;;;3.9;2.3;;;;;;;;;;;;;
2021/07/08 10:03:02;;;;;;;5;2.5;;;;;;;;;;;;;
2021/07/08 10:05:26;;;;;;;4.6;2.2;;;;;;;;;;;;;
2021/07/08 10:07:51;;;;;;;4.7;2.2;;;;;;;;;;;;;
2021/07/08 10:10:18;;;;;;;3.7;2.2;;;;;;;;;;;;;
2021/07/08 10:12:45;;;;;;;4.1;2.2;;;;;;;;;;;;;
2021/07/08 10:15:10;;;;;;;3.7;2.1;;;;;;;;;;;;;
2021/07/08 10:17:35;;;;;;;4.2;1.9;;;;;;;;;;;;;
2021/07/08 10:20:00;;;;;;;2.9;2.2;;;;;;;;;;;;;
2021/07/08 10:22:25;;;;;;;2.3;2.1;;;;;;;;;;;;;
2021/07/08 10:24:51;;;;;;;4.7;1.8;;;;;;;;;;;;;
2021/07/08 10:27:16;;;;;;;3.5;2;;;;;;;;;;;;;
2021/07/08 10:29:41;;;;;;;4.4;2.2;;;;;;;;;;;;;
2021/07/08 10:32:07;;;;;;;3.3;1.9;;;;;;;;;;;;;
2021/07/08 10:34:32;;;;;;;2.7;1.9;;;;;;;;;;;;;
2021/07/08 10:37:09;;;;;;;3.1;1.9;;;;;;;;;;;;;
2021/07/08 10:39:22;;;;;;;2.9;1.8;;;;;;;;;;;;;
2021/07/08 10:41:47;;;;;;;3.3;2;;;;;;;;;;;;;
2021/07/08 10:44:13;;;;;;;3.5;2.1;;;;;;;;;;;;;
2021/07/08 10:46:38;;;;;;;3.3;2;;;;;;;;;;;;;
2021/07/08 10:49:04;;;;;;;2;1.7;;;;;;;;;;;;;
2021/07/08 10:51:29;;;;;;;2;1.9;;;;;;;;;;;;;
2021/07/08 10:53:54;;;;;;;3.6;1.9;;;;;;;;;;;;;
2021/07/08 10:56:19;;;;;;;2.9;1.8;;;;;;;;;;;;;
2021/07/08 10:58:46;;;;;;;2.3;2;;;;;;;;;;;;;
2021/07/08 11:01:11;;;;;;;3;1.9;;;;;;;;;;;;;
2021/07/08 11:03:36;;;;;;;3.6;2;;;;;;;;;;;;;
2021/07/08 11:06:01;;;;;;;4;1.9;;;;;;;;;;;;;
2021/07/08 11:08:27;;;;;;;2.6;1.9;;;;;;;;;;;;;
2021/07/08 11:10:52;;;;;;;2.6;1.8;;;;;;;;;;;;;
2021/07/08 11:13:17;;;;;;;3.7;2.2;;;;;;;;;;;;;
2021/07/08 11:15:45;;;;;;;3.2;2.3;;;;;;;;;;;;;
2021/07/08 11:18:12;;;;;;;4;2.1;;;;;;;;;;;;;
2021/07/08 11:20:37;;;;;;;4.8;2.4;;;;;;;;;;;;;
2021/07/08 11:23:02;;;;;;;5.5;2.8;;;;;;;;;;;;;
2021/07/08 11:25:27;;;;;;;4.2;2.2;;;;;;;;;;;;;
2021/07/08 11:30:18;;;;;;;2.6;2;;;;;;;;;;;;;
2021/07/08 11:32:45;;;;;;;3.1;2.1;;;;;;;;;;;;;
2021/07/08 11:35:09;;;;;;;4;2.4;;;;;;;;;;;;;
2021/07/08 11:37:38;;;;;;;6.6;2.6;;;;;;;;;;;;;
2021/07/08 11:39:59;;;;;;;8.2;3;;;;;;;;;;;;;
2021/07/08 11:42:25;;;;;;;3.9;3.6;;;;;;;;;;;;;
2021/07/08 11:44:52;;;;;;;3.9;3.5;;;;;;;;;;;;;
2021/07/08 11:47:16;;;;;;;3.8;3.3;;;;;;;;;;;;;
2021/07/08 11:49:42;;;;;;;3.7;3.4;;;;;;;;;;;;;
2021/07/08 11:52:07;;;;;;;4.3;3.2;;;;;;;;;;;;;
2021/07/08 11:54:33;;;;;;;4.8;3;;;;;;;;;;;;;
2021/07/08 11:56:58;;;;;;;11.8;2.8;;;;;;;;;;;;;
2021/07/08 11:59:23;;;;;;;10.4;3.3;;;;;;;;;;;;;
2021/07/08 12:01:48;;;;;;;5.5;2.5;;;;;;;;;;;;;
2021/07/08 12:04:14;;;;;;;4.8;2.1;;;;;;;;;;;;;
2021/07/08 12:06:39;;;;;;;3.6;2.1;;;;;;;;;;;;;
2021/07/08 12:09:06;;;;;;;4.5;2.6;;;;;;;;;;;;;
2021/07/08 12:11:31;;;;;;;3.5;2.1;;;;;;;;;;;;;
2021/07/08 12:13:54;;;;;;;3.7;1.9;;;;;;;;;;;;;
2021/07/08 12:16:20;;;;;;;2.6;1.8;;;;;;;;;;;;;
2021/07/08 12:18:46;;;;;;;3.3;2.5;;;;;;;;;;;;;
2021/07/08 12:21:11;;;;;;;5.5;2.6;;;;;;;;;;;;;
2021/07/08 12:23:36;;;;;;;3.5;2.1;;;;;;;;;;;;;
2021/07/08 12:26:01;;;;;;;2.7;2.3;;;;;;;;;;;;;
2021/07/08 12:28:26;;;;;;;3.2;2.4;;;;;;;;;;;;;
2021/07/08 12:30:51;;;;;;;4.6;2.4;;;;;;;;;;;;;
2021/07/08 12:33:16;;;;;;;5.7;2.4;;;;;;;;;;;;;
2021/07/08 12:35:42;;;;;;;4.4;2.4;;;;;;;;;;;;;
2021/07/08 12:38:07;;;;;;;2.7;2.3;;;;;;;;;;;;;
2021/07/08 12:40:32;;;;;;;2.7;2.1;;;;;;;;;;;;;
2021/07/08 12:42:58;;;;;;;4.5;1.9;;;;;;;;;;;;;
2021/07/08 12:45:23;;;;;;;2.4;2;;;;;;;;;;;;;
2021/07/08 12:47:47;;;;;;;2.3;1.7;;;;;;;;;;;;;
2021/07/08 12:50:12;;;;;;;4.3;2;;;;;;;;;;;;;
2021/07/08 12:52:38;;;;;;;5.9;2.8;;;;;;;;;;;;;
2021/07/08 12:55:03;;;;;;;5.9;2.4;;;;;;;;;;;;;
2021/07/08 12:57:28;;;;;;;4.9;2.7;;;;;;;;;;;;;
2021/07/08 12:59:56;;;;;;;5.4;2.6;;;;;;;;;;;;;
2021/07/08 13:02:21;;;;;;;3.6;2.2;;;;;;;;;;;;;
2021/07/08 13:04:46;;;;;;;5;2.4;;;;;;;;;;;;;
2021/07/08 13:07:12;;;;;;;4.3;2.2;;;;;;;;;;;;;
2021/07/08 13:09:38;;;;;;;1.8;1.6;;;;;;;;;;;;;
2021/07/08 13:12:03;;;;;;;2.5;1.7;;;;;;;;;;;;;
2021/07/08 13:14:29;;;;;;;2.5;1.9;;;;;;;;;;;;;
2021/07/08 13:16:56;;;;;;;3;1.6;;;;;;;;;;;;;
2021/07/08 13:19:21;;;;;;;2.6;1.7;;;;;;;;;;;;;
2021/07/08 13:21:48;;;;;;;2;1.5;;;;;;;;;;;;;
2021/07/08 13:24:13;;;;;;;2.8;1.9;;;;;;;;;;;;;
2021/07/08 13:26:39;;;;;;;2.5;1.7;;;;;;;;;;;;;
2021/07/08 13:29:04;;;;;;;3.9;1.6;;;;;;;;;;;;;
2021/07/08 13:31:29;;;;;;;4.1;1.6;;;;;;;;;;;;;
2021/07/08 13:33:55;;;;;;;3.1;1.8;;;;;;;;;;;;;
2021/07/08 13:36:21;;;;;;;3.6;1.7;;;;;;;;;;;;;
2021/07/08 13:38:47;;;;;;;2.7;1.7;;;;;;;;;;;;;
2021/07/08 13:41:12;;;;;;;3.2;1.8;;;;;;;;;;;;;
2021/07/08 13:43:37;;;;;;;2.5;1.7;;;;;;;;;;;;;
2021/07/08 13:46:04;;;;;;;2.3;1.8;;;;;;;;;;;;;
2021/07/08 13:48:29;;;;;;;1.9;1.7;;;;;;;;;;;;;
2021/07/08 13:50:54;;;;;;;2.2;1.6;;;;;;;;;;;;;
2021/07/08 13:53:19;;;;;;;3.9;1.8;;;;;;;;;;;;;
2021/07/08 13:55:44;;;;;;;2.3;1.7;;;;;;;;;;;;;
2021/07/08 13:58:10;;;;;;;2;1.8;;;;;;;;;;;;;
2021/07/08 14:00:35;;;;;;;2.9;1.7;;;;;;;;;;;;;
2021/07/08 14:03:25;;;;;;;2.2;1.9;;;;;;;;;;;;;
2021/07/08 14:05:41;;;;;;;1.9;1.7;;;;;;;;;;;;;
2021/07/08 14:08:06;;;;;;;3.2;2.3;;;;;;;;;;;;;
2021/07/08 14:10:31;;;;;;;2.3;1.8;;;;;;;;;;;;;
2021/07/08 14:12:56;;;;;;;3.5;2;;;;;;;;;;;;;
2021/07/08 14:15:22;;;;;;;3;2;;;;;;;;;;;;;
2021/07/08 14:17:48;;;;;;;2.8;1.9;;;;;;;;;;;;;
2021/07/08 14:20:14;;;;;;;3.6;1.7;;;;;;;;;;;;;
2021/07/08 14:22:39;;;;;;;4.7;1.7;;;;;;;;;;;;;
2021/07/08 14:25:04;;;;;;;2.5;1.7;;;;;;;;;;;;;
2021/07/08 14:27:29;;;;;;;1.8;1.5;;;;;;;;;;;;;
2021/07/08 14:29:54;;;;;;;1.5;1.4;;;;;;;;;;;;;
2021/07/08 14:32:20;;;;;;;3.3;1.7;;;;;;;;;;;;;
2021/07/08 14:34:45;;;;;;;3.4;1.9;;;;;;;;;;;;;
2021/07/08 14:37:11;;;;;;;2.6;1.8;;;;;;;;;;;;;
2021/07/08 14:39:36;;;;;;;4.9;1.9;;;;;;;;;;;;;
2021/07/08 14:42:02;;;;;;;3.4;1.8;;;;;;;;;;;;;
2021/07/08 14:44:32;;;;;;;2.3;1.9;;;;;;;;;;;;;
2021/07/08 14:46:53;;;;;;;3.4;2;;;;;;;;;;;;;
2021/07/08 14:49:18;;;;;;;2.6;1.7;;;;;;;;;;;;;
2021/07/08 14:51:43;;;;;;;2.8;1.7;;;;;;;;;;;;;
2021/07/08 14:54:08;;;;;;;2.1;1.6;;;;;;;;;;;;;
2021/07/08 14:56:33;;;;;;;2;1.8;;;;;;;;;;;;;
2021/07/08 14:58:58;;;;;;;2.9;1.9;;;;;;;;;;;;;
2021/07/08 15:01:24;;;;;;;2.4;1.9;;;;;;;;;;;;;
2021/07/08 15:03:50;;;;;;;3.4;2.1;;;;;;;;;;;;;
2021/07/08 15:06:14;;;;;;;2.8;1.8;;;;;;;;;;;;;
2021/07/08 15:08:41;;;;;;;1.7;1.6;;;;;;;;;;;;;
2021/07/08 15:11:06;;;;;;;1.8;1.7;;;;;;;;;;;;;
2021/07/08 15:13:31;;;;;;;1.6;1.5;;;;;;;;;;;;;
2021/07/08 15:15:56;;;;;;;4;1.6;;;;;;;;;;;;;
2021/07/08 15:18:34;;;;;;;1.4;1.3;;;;;;;;;;;;;
2021/07/08 15:21:00;;;;;;;2.4;1.4;;;;;;;;;;;;;
2021/07/08 15:23:25;;;;;;;3.1;1.5;;;;;;;;;;;;;
2021/07/08 15:25:51;;;;;;;1.8;1.4;;;;;;;;;;;;;
2021/07/08 15:28:15;;;;;;;4.2;1.8;;;;;;;;;;;;;
2021/07/08 15:30:42;;;;;;;2.3;1.6;;;;;;;;;;;;;
2021/07/08 15:33:08;;;;;;;1.4;1.3;;;;;;;;;;;;;
2021/07/08 15:35:38;;;;;;;4.1;1.7;;;;;;;;;;;;;
2021/07/08 15:38:03;;;;;;;2;1.6;;;;;;;;;;;;;
2021/07/08 15:40:29;;;;;;;1.8;1.7;;;;;;;;;;;;;
2021/07/08 15:43:10;;;;;;;1.9;1.4;;;;;;;;;;;;;
2021/07/08 15:45:35;;;;;;;2.4;1.4;;;;;;;;;;;;;
2021/07/08 15:48:01;;;;;;;1.8;1.6;;;;;;;;;;;;;
2021/07/08 15:50:26;;;;;;;1.5;1.4;;;;;;;;;;;;;
2021/07/08 15:52:51;;;;;;;4.4;1.5;;;;;;;;;;;;;
2021/07/08 15:55:16;;;;;;;3.2;1.6;;;;;;;;;;;;;
2021/07/08 15:57:41;;;;;;;2.2;1.6;;;;;;;;;;;;;
2021/07/08 16:00:06;;;;;;;1.3;1.2;;;;;;;;;;;;;
2021/07/08 16:02:32;;;;;;;2.1;1.3;;;;;;;;;;;;;
2021/07/08 16:04:57;;;;;;;1.6;1.3;;;;;;;;;;;;;
2021/07/08 16:07:23;;;;;;;1.2;1.1;;;;;;;;;;;;;
2021/07/08 16:09:48;;;;;;;5.7;1.5;;;;;;;;;;;;;
2021/07/08 16:12:15;;;;;;;1.7;1.5;;;;;;;;;;;;;
2021/07/08 16:14:40;;;;;;;2.2;1.3;;;;;;;;;;;;;
2021/07/08 16:17:11;;;;;;;4.3;1.7;;;;;;;;;;;;;
2021/07/08 16:19:37;;;;;;;2;1.6;;;;;;;;;;;;;
2021/07/08 16:22:02;;;;;;;3.5;1.8;;;;;;;;;;;;;
2021/07/08 16:24:28;;;;;;;2.5;1.4;;;;;;;;;;;;;
2021/07/08 16:26:53;;;;;;;2.9;1.6;;;;;;;;;;;;;
2021/07/08 16:29:19;;;;;;;1.8;1.4;;;;;;;;;;;;;
2021/07/08 16:31:44;;;;;;;2.4;1.7;;;;;;;;;;;;;
2021/07/08 16:34:10;;;;;;;3.8;1.5;;;;;;;;;;;;;
2021/07/08 16:36:35;;;;;;;3.6;1.3;;;;;;;;;;;;;
2021/07/08 16:39:03;;;;;;;4.6;1.3;;;;;;;;;;;;;
2021/07/08 16:41:28;;;;;;;2;1.6;;;;;;;;;;;;;
2021/07/08 16:43:55;;;;;;;2.4;1.4;;;;;;;;;;;;;
2021/07/08 16:46:18;;;;;;;1.5;1.3;;;;;;;;;;;;;
2021/07/08 16:48:44;;;;;;;1.9;1.2;;;;;;;;;;;;;
2021/07/08 16:51:12;;;;;;;1.9;1.3;;;;;;;;;;;;;
2021/07/08 16:53:34;;;;;;;2.2;1.5;;;;;;;;;;;;;
2021/07/08 16:55:59;;;;;;;1.5;1.4;;;;;;;;;;;;;
2021/07/08 16:58:24;;;;;;;4.4;1.6;;;;;;;;;;;;;
2021/07/08 17:00:51;;;;;;;2;1.4;;;;;;;;;;;;;
2021/07/08 17:03:16;;;;;;;1.2;1.1;;;;;;;;;;;;;
2021/07/08 17:05:42;;;;;;;1.5;1.2;;;;;;;;;;;;;
2021/07/08 17:08:06;;;;;;;1.2;1;;;;;;;;;;;;;
2021/07/08 17:10:37;;;;;;;1.9;1;;;;;;;;;;;;;
2021/07/08 17:13:00;;;;;;;1.4;1.3;;;;;;;;;;;;;
2021/07/08 17:15:30;;;;;;;1.6;1.1;;;;;;;;;;;;;
2021/07/08 17:17:56;;;;;;;2.7;1;;;;;;;;;;;;;
2021/07/08 17:20:21;;;;;;;3.5;1.2;;;;;;;;;;;;;
2021/07/08 17:22:49;;;;;;;3;1.3;;;;;;;;;;;;;
2021/07/08 17:25:13;;;;;;;2.1;1.2;;;;;;;;;;;;;
2021/07/08 17:27:38;;;;;;;1.6;1.1;;;;;;;;;;;;;
2021/07/08 17:30:03;;;;;;;4;1.1;;;;;;;;;;;;;
2021/07/08 17:32:31;;;;;;;3.9;1.3;;;;;;;;;;;;;
2021/07/08 17:34:58;;;;;;;2.8;1;;;;;;;;;;;;;
2021/07/08 17:37:22;;;;;;;2.3;1;;;;;;;;;;;;;
2021/07/08 17:39:48;;;;;;;1.7;1;;;;;;;;;;;;;
2021/07/08 17:42:14;;;;;;;1.8;0.8;;;;;;;;;;;;;
2021/07/08 17:44:38;;;;;;;1.7;1;;;;;;;;;;;;;
2021/07/08 17:47:03;;;;;;;1.8;1.1;;;;;;;;;;;;;
2021/07/08 17:49:32;;;;;;;0.8;0.7;;;;;;;;;;;;;
2021/07/08 17:51:55;;;;;;;1.1;0.4;;;;;;;;;;;;;
2021/07/08 17:54:21;;;;;;;0.6;0.6;;;;;;;;;;;;;
2021/07/08 17:56:47;;;;;;;1.4;0.8;;;;;;;;;;;;;
2021/07/08 17:59:12;;;;;;;1.8;1.1;;;;;;;;;;;;;
2021/07/08 18:01:38;;;;;;;2.3;1.3;;;;;;;;;;;;;
2021/07/08 18:04:03;;;;;;;4.2;1.4;;;;;;;;;;;;;
2021/07/08 18:06:40;;;;;;;1.2;1;;;;;;;;;;;;;
2021/07/08 18:09:07;;;;;;;5.4;2.4;;;;;;;;;;;;;
2021/07/08 18:11:30;;;;;;;6.6;2.3;;;;;;;;;;;;;
2021/07/08 18:13:56;;;;;;;8.6;2.8;;;;;;;;;;;;;
2021/07/08 18:16:21;;;;;;;4.3;1.6;;;;;;;;;;;;;
2021/07/08 18:18:50;;;;;;;3.2;1.9;;;;;;;;;;;;;
2021/07/08 18:21:18;;;;;;;2.3;1.7;;;;;;;;;;;;;
2021/07/08 18:23:44;;;;;;;2.8;1.6;;;;;;;;;;;;;
2021/07/08 18:26:08;;;;;;;4.1;1.8;;;;;;;;;;;;;
2021/07/08 18:28:34;;;;;;;3.6;1.8;;;;;;;;;;;;;
2021/07/08 18:30:59;;;;;;;3.9;2.1;;;;;;;;;;;;;
2021/07/08 18:33:24;;;;;;;3.6;1.8;;;;;;;;;;;;;
2021/07/08 18:35:51;;;;;;;3.8;1.9;;;;;;;;;;;;;
2021/07/08 18:38:16;;;;;;;2.6;2.1;;;;;;;;;;;;;
2021/07/08 18:40:42;;;;;;;3.8;2;;;;;;;;;;;;;
2021/07/08 18:43:15;;;;;;;2.6;1.8;;;;;;;;;;;;;
2021/07/08 18:45:41;;;;;;;3.5;1.8;;;;;;;;;;;;;
2021/07/08 18:48:06;;;;;;;3.5;1.7;;;;;;;;;;;;;
2021/07/08 18:50:33;;;;;;;5.4;2.2;;;;;;;;;;;;;
2021/07/08 18:52:58;;;;;;;4.9;2.2;;;;;;;;;;;;;
2021/07/08 18:55:23;;;;;;;4.9;2.6;;;;;;;;;;;;;
2021/07/08 18:57:48;;;;;;;4.9;2.3;;;;;;;;;;;;;
2021/07/08 19:00:15;;;;;;;5;2.4;;;;;;;;;;;;;
2021/07/08 19:02:40;;;;;;;4.7;2.4;;;;;;;;;;;;;
2021/07/08 19:05:06;;;;;;;4.6;2.3;;;;;;;;;;;;;
2021/07/08 19:07:31;;;;;;;3.5;1.5;;;;;;;;;;;;;
2021/07/08 19:09:57;;;;;;;3.8;1.8;;;;;;;;;;;;;
2021/07/08 19:12:22;;;;;;;3.5;1.6;;;;;;;;;;;;;
2021/07/08 19:14:48;;;;;;;2.4;1.6;;;;;;;;;;;;;
2021/07/08 19:17:13;;;;;;;3.6;2;;;;;;;;;;;;;
2021/07/08 19:19:39;;;;;;;4.7;2.3;;;;;;;;;;;;;
2021/07/08 19:22:04;;;;;;;3.2;2.3;;;;;;;;;;;;;
2021/07/08 19:24:29;;;;;;;7.3;2.8;;;;;;;;;;;;;
2021/07/08 19:26:54;;;;;;;3.6;2.5;;;;;;;;;;;;;
2021/07/08 19:29:20;;;;;;;3.7;2;;;;;;;;;;;;;
2021/07/08 19:31:45;;;;;;;3.4;1.7;;;;;;;;;;;;;
2021/07/08 19:34:10;;;;;;;4.9;1.6;;;;;;;;;;;;;
2021/07/08 19:36:38;;;;;;;4.5;1.7;;;;;;;;;;;;;